createdAt,value
2023-05-15T00:01:30.906Z,94094.06
2023-05-15T00:03:57.506Z,94086.22
2023-05-15T00:06:24.200Z,94078.09
2023-05-15T00:12:31.405Z,94091.00
2023-05-15T00:14:58.011Z,94105.13
2023-05-15T00:17:25.885Z,94115.78
2023-05-15T00:19:57.649Z,94111.09
2023-05-15T00:22:24.432Z,94110.59
2023-05-15T00:24:51.048Z,94113.78
2023-05-15T00:27:17.726Z,94110.44
2023-05-15T00:29:44.353Z,94121.63
2023-05-15T00:32:10.930Z,94127.78
2023-05-15T00:34:37.525Z,94121.09
2023-05-15T00:37:04.228Z,94119.06
2023-05-15T00:39:30.825Z,94126.03
2023-05-15T00:41:59.574Z,94123.00
2023-05-15T00:44:29.885Z,94120.09
2023-05-15T00:46:58.117Z,94125.91
2023-05-15T00:49:27.620Z,94124.97
2023-05-15T00:51:54.290Z,94122.81
2023-05-15T00:54:20.979Z,94121.97
2023-05-15T00:56:48.501Z,94119.00
2023-05-15T00:59:16.156Z,94110.75
2023-05-15T01:01:45.270Z,94114.63
2023-05-15T01:04:12.149Z,94115.56
2023-05-15T01:06:38.784Z,94117.44
2023-05-15T01:09:08.367Z,94126.09
2023-05-15T01:11:38.192Z,94116.47
2023-05-15T01:14:07.058Z,94103.63
2023-05-15T01:16:34.447Z,94104.03
2023-05-15T01:19:01.134Z,94097.66
2023-05-15T01:21:37.465Z,94092.44
2023-05-15T01:27:44.630Z,94081.28
2023-05-15T01:30:18.710Z,94090.31
2023-05-15T01:33:05.489Z,94082.34
2023-05-15T01:35:49.443Z,94078.63
2023-05-15T01:38:22.036Z,94082.50
2023-05-15T01:40:52.764Z,94076.13
2023-05-15T01:43:24.395Z,94063.09
2023-05-15T01:45:51.113Z,94067.00
2023-05-15T01:48:19.413Z,94078.66
2023-05-15T01:50:47.400Z,94059.97
2023-05-15T01:53:15.209Z,94067.06
2023-05-15T01:55:42.630Z,94064.97
2023-05-15T01:58:10.159Z,94071.59
2023-05-15T02:00:37.883Z,94078.94
2023-05-15T02:03:07.058Z,94088.94
2023-05-15T02:05:35.378Z,94093.38
2023-05-15T02:08:04.656Z,94097.16
2023-05-15T02:10:33.020Z,94083.22
2023-05-15T02:13:00.958Z,94085.75
2023-05-15T02:15:29.689Z,94080.56
2023-05-15T02:17:56.818Z,94080.34
2023-05-15T02:20:23.566Z,94079.16
2023-05-15T02:22:50.183Z,94083.34
2023-05-15T02:25:16.895Z,94063.91
2023-05-15T02:27:51.446Z,94065.41
2023-05-15T02:30:48.547Z,94056.44
2023-05-15T02:33:38.444Z,94051.69
2023-05-15T02:36:07.987Z,94049.53
2023-05-15T02:38:55.607Z,94053.34
2023-05-15T02:41:23.623Z,94058.16
2023-05-15T02:43:52.277Z,94054.34
2023-05-15T02:46:22.469Z,94066.03
2023-05-15T02:48:50.644Z,94053.66
2023-05-15T02:51:17.418Z,94036.88
2023-05-15T02:53:44.359Z,94041.69
2023-05-15T02:56:10.953Z,94039.66
2023-05-15T02:58:39.224Z,94045.28
2023-05-15T03:01:06.317Z,94041.41
2023-05-15T03:03:33.181Z,94047.91
2023-05-15T03:06:02.860Z,94050.53
2023-05-15T03:08:29.521Z,94058.19
2023-05-15T03:10:56.199Z,94059.19
2023-05-15T03:13:22.914Z,94066.63
2023-05-15T03:15:49.559Z,94056.00
2023-05-15T03:18:18.996Z,94062.44
2023-05-15T03:20:48.402Z,94061.78
2023-05-15T03:23:15.049Z,94050.25
2023-05-15T03:25:41.583Z,94061.38
2023-05-15T03:28:08.361Z,94049.94
2023-05-15T03:30:35.045Z,94049.63
2023-05-15T03:33:04.116Z,94043.00
2023-05-15T03:35:32.518Z,94044.38
2023-05-15T03:37:59.306Z,94047.03
2023-05-15T03:40:26.082Z,94046.56
2023-05-15T03:42:53.609Z,94040.06
2023-05-15T03:45:21.249Z,94032.63
2023-05-15T03:47:48.585Z,94044.38
2023-05-15T03:50:16.333Z,94050.72
2023-05-15T03:52:43.209Z,94046.78
2023-05-15T03:55:10.002Z,94047.09
2023-05-15T03:57:36.711Z,94060.19
2023-05-15T04:00:09.743Z,94057.03
2023-05-15T04:02:37.204Z,94057.38
2023-05-15T04:05:05.444Z,94049.94
2023-05-15T04:07:34.453Z,94058.59
2023-05-15T04:10:02.022Z,94055.97
2023-05-15T04:12:34.038Z,94053.56
2023-05-15T04:15:21.701Z,94059.63
2023-05-15T04:17:50.711Z,94061.34
2023-05-15T04:20:19.594Z,94079.91
2023-05-15T04:22:46.545Z,94071.06
2023-05-15T04:25:14.777Z,94066.44
2023-05-15T04:27:42.736Z,94070.56
2023-05-15T04:30:10.643Z,94072.00
2023-05-15T04:32:38.278Z,94062.72
2023-05-15T04:35:06.391Z,94049.38
2023-05-15T04:37:33.030Z,94044.75
2023-05-15T04:39:59.959Z,94033.78
2023-05-15T04:42:26.869Z,94023.59
2023-05-15T04:44:53.796Z,94026.00
2023-05-15T04:47:20.736Z,94046.94
2023-05-15T04:49:48.191Z,94046.94
2023-05-15T04:52:14.752Z,94049.16
2023-05-15T04:54:42.208Z,94049.88
2023-05-15T04:57:09.359Z,94048.38
2023-05-15T04:59:36.388Z,94047.31
2023-05-15T05:02:03.471Z,94041.28
2023-05-15T05:04:30.035Z,94025.13
2023-05-15T05:06:56.853Z,94027.56
2023-05-15T05:09:23.605Z,94035.44
2023-05-15T05:11:50.335Z,94020.56
2023-05-15T05:14:17.029Z,94024.97
2023-05-15T05:16:46.600Z,94030.25
2023-05-15T05:19:13.338Z,94023.50
2023-05-15T05:21:39.989Z,94019.75
2023-05-15T05:24:06.687Z,94035.69
2023-05-15T05:26:33.359Z,94035.44
2023-05-15T05:29:00.010Z,94040.94
2023-05-15T05:31:26.700Z,94027.84
2023-05-15T05:33:53.351Z,94042.00
2023-05-15T05:36:20.028Z,94034.19
2023-05-15T05:38:46.814Z,94019.63
2023-05-15T05:41:13.515Z,94034.47
2023-05-15T05:43:40.096Z,94024.25
2023-05-15T05:46:06.680Z,94025.97
2023-05-15T05:48:33.362Z,94035.19
2023-05-15T05:50:59.978Z,94031.66
2023-05-15T05:53:26.642Z,94030.94
2023-05-15T05:55:53.972Z,94028.94
2023-05-15T05:58:25.486Z,94031.31
2023-05-15T06:00:53.307Z,94034.47
2023-05-15T06:03:21.053Z,94032.47
2023-05-15T06:05:48.709Z,94038.28
2023-05-15T06:08:15.495Z,94040.22
2023-05-15T06:10:42.483Z,94038.44
2023-05-15T06:13:09.248Z,94026.88
2023-05-15T06:15:35.923Z,94024.19
2023-05-15T06:18:02.597Z,94025.81
2023-05-15T06:20:29.385Z,94029.81
2023-05-15T06:22:56.185Z,94030.59
2023-05-15T06:25:22.911Z,94028.97
2023-05-15T06:27:49.625Z,94036.84
2023-05-15T06:30:16.347Z,94032.69
2023-05-15T06:32:42.996Z,94034.56
2023-05-15T06:35:10.449Z,94031.81
2023-05-15T06:37:37.730Z,94031.34
2023-05-15T06:40:06.079Z,94052.78
2023-05-15T06:42:33.256Z,94040.78
2023-05-15T06:45:00.291Z,94046.16
2023-05-15T06:47:27.036Z,94041.75
2023-05-15T06:49:55.494Z,94047.81
2023-05-15T06:52:22.142Z,94051.28
2023-05-15T06:54:48.769Z,94052.31
2023-05-15T06:57:15.826Z,94042.25
2023-05-15T06:59:42.498Z,94057.19
2023-05-15T07:02:09.331Z,94046.22
2023-05-15T07:04:36.227Z,94038.19
2023-05-15T07:07:02.943Z,94035.63
2023-05-15T07:09:29.597Z,94036.44
2023-05-15T07:11:56.166Z,94034.81
2023-05-15T07:14:24.588Z,94040.63
2023-05-15T07:16:51.280Z,94034.25
2023-05-15T07:19:19.452Z,94033.22
2023-05-15T07:21:46.053Z,94035.53
2023-05-15T07:24:12.664Z,94060.88
2023-05-15T07:26:46.930Z,94054.69
2023-05-15T07:29:23.989Z,94051.59
2023-05-15T07:31:50.764Z,94045.13
2023-05-15T07:34:17.503Z,94036.34
2023-05-15T07:36:44.168Z,94033.16
2023-05-15T07:39:10.867Z,94030.97
2023-05-15T07:41:37.531Z,94024.31
2023-05-15T07:44:04.256Z,94033.19
2023-05-15T07:46:31.007Z,94031.59
2023-05-15T07:48:57.735Z,94040.16
2023-05-15T07:51:24.388Z,94043.72
2023-05-15T07:53:51.010Z,94042.63
2023-05-15T07:56:17.753Z,94047.50
2023-05-15T07:58:44.365Z,94051.31
2023-05-15T08:01:11.378Z,94047.13
2023-05-15T08:03:38.123Z,94064.78
2023-05-15T08:06:05.159Z,94068.44
2023-05-15T08:08:31.798Z,94061.22
2023-05-15T08:10:58.414Z,94055.88
2023-05-15T08:13:25.088Z,94060.56
2023-05-15T08:15:51.756Z,94056.53
2023-05-15T08:18:18.457Z,94061.44
2023-05-15T08:20:45.026Z,94052.97
2023-05-15T08:23:14.300Z,94050.91
2023-05-15T08:25:40.942Z,94049.75
2023-05-15T08:28:07.557Z,94058.38
2023-05-15T08:30:34.255Z,94052.19
2023-05-15T08:33:00.879Z,94050.28
2023-05-15T08:35:27.693Z,94048.03
2023-05-15T08:37:54.463Z,94054.00
2023-05-15T08:40:34.416Z,94045.34
2023-05-15T08:43:15.070Z,94046.50
2023-05-15T08:45:42.237Z,94046.50
2023-05-15T08:48:13.890Z,94047.63
2023-05-15T08:50:41.644Z,94043.97
2023-05-15T08:53:08.557Z,94027.63
2023-05-15T08:55:35.396Z,94037.94
2023-05-15T08:58:02.915Z,94034.94
2023-05-15T09:00:30.838Z,94028.63
2023-05-15T09:03:01.342Z,94022.38
2023-05-15T09:05:29.789Z,94032.91
2023-05-15T09:07:59.137Z,94035.72
2023-05-15T09:10:25.826Z,94032.91
2023-05-15T09:12:52.529Z,94033.72
2023-05-15T09:15:25.534Z,94020.47
2023-05-15T09:17:52.735Z,94013.69
2023-05-15T09:20:25.441Z,94010.53
2023-05-15T09:22:52.130Z,94021.75
2023-05-15T09:25:38.322Z,94007.34
2023-05-15T09:28:06.468Z,94011.28
2023-05-15T09:30:34.858Z,94011.34
2023-05-15T09:33:05.623Z,94008.25
2023-05-15T09:35:35.431Z,93991.38
2023-05-15T09:38:04.706Z,93979.84
2023-05-15T09:40:32.608Z,93970.19
2023-05-15T09:42:59.799Z,93970.88
2023-05-15T09:45:29.917Z,93973.31
2023-05-15T09:47:57.644Z,93983.72
2023-05-15T09:50:36.868Z,93969.03
2023-05-15T09:53:04.814Z,93984.88
2023-05-15T09:55:36.292Z,93984.47
2023-05-15T09:58:14.519Z,93983.31
2023-05-15T10:00:48.084Z,93978.28
2023-05-15T10:03:17.405Z,93974.03
2023-05-15T10:05:44.447Z,93973.63
2023-05-15T10:08:11.885Z,93973.25
2023-05-15T10:10:38.810Z,93973.19
2023-05-15T10:13:08.171Z,93972.00
2023-05-15T10:15:35.737Z,93977.50
2023-05-15T10:18:05.053Z,93982.88
2023-05-15T10:20:35.550Z,93990.25
2023-05-15T10:23:04.666Z,93988.63
2023-05-15T10:25:46.319Z,94001.38
2023-05-15T10:28:14.246Z,94005.66
2023-05-15T10:30:43.039Z,94005.25
2023-05-15T10:33:11.562Z,94016.06
2023-05-15T10:35:42.615Z,94006.84
2023-05-15T10:38:11.157Z,94005.63
2023-05-15T10:40:39.266Z,94004.44
2023-05-15T10:43:06.406Z,94013.28
2023-05-15T10:45:35.461Z,94009.03
2023-05-15T10:48:05.693Z,94010.63
2023-05-15T10:50:32.663Z,94015.94
2023-05-15T10:53:00.178Z,94011.72
2023-05-15T10:55:26.946Z,94012.22
2023-05-15T10:57:55.008Z,94003.72
2023-05-15T11:00:31.277Z,93990.59
2023-05-15T11:02:58.884Z,93996.72
2023-05-15T11:05:26.194Z,93983.59
2023-05-15T11:08:25.975Z,93993.69
2023-05-15T11:10:53.701Z,93991.38
2023-05-15T11:13:20.806Z,93982.81
2023-05-15T11:15:48.355Z,93978.84
2023-05-15T11:18:15.977Z,93983.22
2023-05-15T11:20:54.657Z,93997.88
2023-05-15T11:23:22.268Z,93982.88
2023-05-15T11:25:58.806Z,93981.28
2023-05-15T11:28:29.357Z,93998.63
2023-05-15T11:31:06.871Z,93994.09
2023-05-15T11:33:33.838Z,93984.06
2023-05-15T11:36:01.822Z,93977.88
2023-05-15T11:38:28.529Z,93976.97
2023-05-15T11:40:58.746Z,93964.75
2023-05-15T11:43:29.520Z,93962.34
2023-05-15T11:46:07.302Z,93971.69
2023-05-15T11:48:39.698Z,93963.81
2023-05-15T11:51:17.396Z,93964.28
2023-05-15T11:53:44.310Z,93962.50
2023-05-15T11:56:19.437Z,93952.56
2023-05-15T11:58:49.569Z,93952.13
2023-05-15T12:01:16.538Z,93951.75
2023-05-15T12:03:43.476Z,93954.63
2023-05-15T12:06:10.848Z,93951.09
2023-05-15T12:08:38.380Z,93948.38
2023-05-15T12:11:06.063Z,93948.13
2023-05-15T12:13:33.793Z,93945.81
2023-05-15T12:16:02.521Z,93945.41
2023-05-15T12:18:33.404Z,93948.56
2023-05-15T12:21:00.748Z,93947.91
2023-05-15T12:23:28.593Z,93928.94
2023-05-15T12:26:01.339Z,93918.97
2023-05-15T12:28:29.830Z,93895.63
2023-05-15T12:30:57.150Z,93904.72
2023-05-15T12:33:25.023Z,93899.84
2023-05-15T12:35:58.904Z,93890.88
2023-05-15T12:38:27.804Z,93882.97
2023-05-15T12:40:54.821Z,93880.84
2023-05-15T12:43:25.109Z,93873.31
2023-05-15T12:45:56.073Z,93863.50
2023-05-15T12:48:23.210Z,93868.09
2023-05-15T12:50:52.901Z,93872.44
2023-05-15T12:53:21.584Z,93868.38
2023-05-15T12:55:48.960Z,93873.84
2023-05-15T12:58:18.859Z,93873.69
2023-05-15T13:00:50.335Z,93883.38
2023-05-15T13:03:21.559Z,93880.59
2023-05-15T13:05:48.454Z,93889.56
2023-05-15T13:08:17.531Z,93879.16
2023-05-15T13:10:45.412Z,93867.75
2023-05-15T13:13:12.216Z,93870.28
2023-05-15T13:15:42.229Z,93859.28
2023-05-15T13:18:13.725Z,93861.13
2023-05-15T13:20:43.345Z,93864.13
2023-05-15T13:23:14.151Z,93860.34
2023-05-15T13:25:40.909Z,93855.94
2023-05-15T13:28:08.594Z,93863.19
2023-05-15T13:30:35.823Z,93860.94
2023-05-15T13:33:03.557Z,93861.94
2023-05-15T13:35:30.438Z,93863.13
2023-05-15T13:37:57.399Z,93863.31
2023-05-15T13:40:24.606Z,93870.13
2023-05-15T13:42:51.425Z,93866.66
2023-05-15T13:45:18.228Z,93865.41
2023-05-15T13:47:45.188Z,93860.16
2023-05-15T13:50:15.651Z,93866.69
2023-05-15T13:52:44.430Z,93875.13
2023-05-15T13:55:11.433Z,93876.53
2023-05-15T13:57:39.589Z,93874.03
2023-05-15T14:00:07.926Z,93878.41
2023-05-15T14:02:34.631Z,93866.03
2023-05-15T14:05:01.827Z,93881.00
2023-05-15T14:07:31.858Z,93877.59
2023-05-15T14:09:58.555Z,93865.63
2023-05-15T14:12:25.473Z,93860.47
2023-05-15T14:14:52.165Z,93864.91
2023-05-15T14:17:18.764Z,93859.03
2023-05-15T14:19:45.589Z,93856.25
2023-05-15T14:22:12.272Z,93860.91
2023-05-15T14:24:38.947Z,93870.34
2023-05-15T14:27:06.044Z,93865.66
2023-05-15T14:29:32.722Z,93857.22
2023-05-15T14:31:59.374Z,93863.63
2023-05-15T14:34:26.130Z,93861.09
2023-05-15T14:36:52.757Z,93849.78
2023-05-15T14:39:19.552Z,93848.88
2023-05-15T14:41:46.280Z,93852.22
2023-05-15T14:44:12.988Z,93846.22
2023-05-15T14:46:42.593Z,93845.66
2023-05-15T14:49:09.439Z,93838.81
2023-05-15T14:51:36.094Z,93834.41
2023-05-15T14:54:04.399Z,93833.16
2023-05-15T14:56:31.654Z,93833.75
2023-05-15T14:58:58.277Z,93836.03
2023-05-15T15:01:25.001Z,93837.56
2023-05-15T15:03:51.874Z,93825.56
2023-05-15T15:06:18.719Z,93815.63
2023-05-15T15:08:45.276Z,93806.94
2023-05-15T15:11:12.034Z,93813.06
2023-05-15T15:13:38.650Z,93804.44
2023-05-15T15:16:05.400Z,93796.94
2023-05-15T15:18:32.106Z,93794.88
2023-05-15T15:20:58.807Z,93804.13
2023-05-15T15:23:25.486Z,93803.78
2023-05-15T15:25:52.134Z,93803.53
2023-05-15T15:28:18.756Z,93798.66
2023-05-15T15:30:45.555Z,93791.75
2023-05-15T15:33:12.179Z,93785.91
2023-05-15T15:35:38.901Z,93794.22
2023-05-15T15:38:05.699Z,93800.09
2023-05-15T15:40:32.807Z,93799.59
2023-05-15T15:43:01.551Z,93804.72
2023-05-15T15:45:28.272Z,93815.84
2023-05-15T15:47:55.059Z,93807.75
2023-05-15T15:50:21.722Z,93808.09
2023-05-15T15:52:48.424Z,93810.88
2023-05-15T15:55:15.059Z,93818.75
2023-05-15T15:57:41.687Z,93820.91
2023-05-15T16:00:09.586Z,93832.72
2023-05-15T16:02:36.816Z,93832.56
2023-05-15T16:05:04.010Z,93824.06
2023-05-15T16:07:30.774Z,93828.06
2023-05-15T16:10:10.882Z,93829.00
2023-05-15T16:12:40.847Z,93824.28
2023-05-15T16:15:21.666Z,93824.81
2023-05-15T16:17:54.340Z,93824.47
2023-05-15T16:20:21.962Z,93832.38
2023-05-15T16:22:48.628Z,93836.09
2023-05-15T16:25:15.287Z,93839.97
2023-05-15T16:27:41.895Z,93841.38
2023-05-15T16:30:09.440Z,93847.06
2023-05-15T16:32:36.301Z,93854.66
2023-05-15T16:35:03.444Z,93861.69
2023-05-15T16:37:30.059Z,93863.66
2023-05-15T16:39:57.867Z,93868.47
2023-05-15T16:42:24.524Z,93863.31
2023-05-15T16:44:51.407Z,93859.09
2023-05-15T16:47:18.016Z,93862.44
2023-05-15T16:49:45.794Z,93858.91
2023-05-15T16:52:13.557Z,93860.63
2023-05-15T16:54:41.861Z,93862.88
2023-05-15T16:57:08.481Z,93852.31
2023-05-15T16:59:35.292Z,93854.22
2023-05-15T17:02:02.000Z,93850.91
2023-05-15T17:04:31.457Z,93851.59
2023-05-15T17:06:59.466Z,93848.16
2023-05-15T17:09:26.334Z,93856.28
2023-05-15T17:11:53.009Z,93848.56
2023-05-15T17:14:19.748Z,93850.47
2023-05-15T17:16:46.400Z,93852.66
2023-05-15T17:19:13.282Z,93869.88
2023-05-15T17:21:39.992Z,93865.47
2023-05-15T17:24:06.846Z,93870.84
2023-05-15T17:26:33.439Z,93868.81
2023-05-15T17:29:00.040Z,93864.63
2023-05-15T17:31:28.881Z,93868.13
2023-05-15T17:33:55.637Z,93871.38
2023-05-15T17:36:22.314Z,93889.47
2023-05-15T17:38:48.918Z,93886.56
2023-05-15T17:41:15.610Z,93879.78
2023-05-15T17:43:42.191Z,93887.81
2023-05-15T17:46:09.022Z,93894.63
2023-05-15T17:48:36.077Z,93902.88
2023-05-15T17:51:02.819Z,93900.47
2023-05-15T17:53:29.502Z,93900.25
2023-05-15T17:55:56.381Z,93894.16
2023-05-15T17:58:23.024Z,93882.38
2023-05-15T18:00:51.664Z,93884.44
2023-05-15T18:03:18.362Z,93883.22
2023-05-15T18:05:46.769Z,93870.31
2023-05-15T18:08:13.923Z,93861.44
2023-05-15T18:10:40.570Z,93851.75
2023-05-15T18:13:07.197Z,93854.16
2023-05-15T18:15:35.262Z,93860.38
2023-05-15T18:18:02.609Z,93859.59
2023-05-15T18:20:29.625Z,93857.31
2023-05-15T18:22:56.315Z,93856.03
2023-05-15T18:25:23.076Z,93863.19
2023-05-15T18:27:49.755Z,93877.06
2023-05-15T18:30:16.552Z,93878.41
2023-05-15T18:32:43.205Z,93879.31
2023-05-15T18:35:12.013Z,93887.41
2023-05-15T18:37:41.361Z,93891.09
2023-05-15T18:40:08.765Z,93897.84
2023-05-15T18:42:35.539Z,93900.66
2023-05-15T18:45:02.345Z,93899.16
2023-05-15T18:47:29.094Z,93899.88
2023-05-15T18:49:55.974Z,93902.53
2023-05-15T18:52:22.895Z,93904.81
2023-05-15T18:54:49.566Z,93903.50
2023-05-15T18:57:16.209Z,93892.59
2023-05-15T18:59:42.853Z,93899.50
2023-05-15T19:02:12.250Z,93897.09
2023-05-15T19:04:38.862Z,93906.00
2023-05-15T19:07:06.369Z,93918.56
2023-05-15T19:09:33.018Z,93918.47
2023-05-15T19:12:00.276Z,93917.03
2023-05-15T19:14:26.936Z,93920.44
2023-05-15T19:16:54.102Z,93917.34
2023-05-15T19:19:23.806Z,93918.53
2023-05-15T19:21:51.934Z,93915.78
2023-05-15T19:24:19.064Z,93913.16
2023-05-15T19:26:45.857Z,93929.44
2023-05-15T19:29:12.567Z,93924.34
2023-05-15T19:31:39.473Z,93921.59
2023-05-15T19:34:06.275Z,93931.97
2023-05-15T19:36:32.892Z,93934.94
2023-05-15T19:39:04.333Z,93933.81
2023-05-15T19:41:30.957Z,93933.59
2023-05-15T19:43:57.585Z,93941.63
2023-05-15T19:46:24.372Z,93940.53
2023-05-15T19:48:51.005Z,93936.28
2023-05-15T19:51:18.853Z,93924.13
2023-05-15T19:53:45.682Z,93927.31
2023-05-15T19:56:13.843Z,93934.28
2023-05-15T19:58:40.511Z,93927.31
2023-05-15T20:01:07.745Z,93925.84
2023-05-15T20:03:34.611Z,93919.66
2023-05-15T20:06:02.590Z,93911.19
2023-05-15T20:08:29.581Z,93913.91
2023-05-15T20:10:57.037Z,93908.50
2023-05-15T20:13:24.235Z,93911.16
2023-05-15T20:15:57.072Z,93905.25
2023-05-15T20:18:25.170Z,93907.31
2023-05-15T20:20:54.506Z,93904.19
2023-05-15T20:23:22.085Z,93894.53
2023-05-15T20:25:50.769Z,93892.13
2023-05-15T20:28:17.990Z,93881.41
2023-05-15T20:30:47.343Z,93884.03
2023-05-15T20:33:14.602Z,93883.22
2023-05-15T20:35:42.769Z,93880.56
2023-05-15T20:38:10.517Z,93877.84
2023-05-15T20:40:37.510Z,93875.53
2023-05-15T20:43:04.679Z,93863.22
2023-05-15T20:45:34.174Z,93863.66
2023-05-15T20:48:01.248Z,93860.22
2023-05-15T20:50:28.419Z,93854.88
2023-05-15T20:52:55.760Z,93848.72
2023-05-15T20:55:22.710Z,93843.44
2023-05-15T20:57:50.368Z,93846.47
2023-05-15T21:00:18.233Z,93843.00
2023-05-15T21:02:46.581Z,93839.47
2023-05-15T21:05:13.805Z,93844.81
2023-05-15T21:07:40.853Z,93854.03
2023-05-15T21:10:07.941Z,93855.53
2023-05-15T21:12:34.613Z,93856.44
2023-05-15T21:15:02.164Z,93858.06
2023-05-15T21:17:29.014Z,93862.72
2023-05-15T21:19:57.726Z,93856.91
2023-05-15T21:22:24.931Z,93854.56
2023-05-15T21:24:51.827Z,93863.13
2023-05-15T21:27:18.651Z,93861.56
2023-05-15T21:29:45.389Z,93865.81
2023-05-15T21:32:12.023Z,93867.72
2023-05-15T21:34:39.788Z,93864.25
2023-05-15T21:37:06.448Z,93861.56
2023-05-15T21:39:33.156Z,93859.25
2023-05-15T21:41:59.790Z,93856.91
2023-05-15T21:44:26.415Z,93851.81
2023-05-15T21:46:53.368Z,93849.00
2023-05-15T21:49:20.005Z,93857.88
2023-05-15T21:51:46.809Z,93855.56
2023-05-15T21:54:13.514Z,93855.97
2023-05-15T21:56:41.173Z,93850.16
2023-05-15T21:59:08.216Z,93859.78
2023-05-15T22:01:36.284Z,93870.13
2023-05-15T22:04:03.332Z,93866.84
2023-05-15T22:06:29.957Z,93871.50
2023-05-15T22:08:57.558Z,93877.28
2023-05-15T22:11:25.560Z,93875.00
2023-05-15T22:13:52.175Z,93871.84
2023-05-15T22:16:19.410Z,93861.72
2023-05-15T22:18:47.733Z,93871.75
2023-05-15T22:21:15.226Z,93869.53
2023-05-15T22:23:41.892Z,93882.34
2023-05-15T22:26:08.458Z,93876.53
2023-05-15T22:28:35.111Z,93874.50
2023-05-15T22:31:01.685Z,93860.16
2023-05-15T22:33:28.347Z,93859.00
2023-05-15T22:35:55.049Z,93854.59
2023-05-15T22:38:21.986Z,93862.94
2023-05-15T22:40:52.497Z,93871.28
2023-05-15T22:43:19.517Z,93865.22
2023-05-15T22:45:46.231Z,93862.19
2023-05-15T22:48:12.905Z,93861.19
2023-05-15T22:50:39.636Z,93856.44
2023-05-15T22:53:06.307Z,93854.09
2023-05-15T22:55:33.014Z,93846.72
2023-05-15T22:57:59.631Z,93850.91
2023-05-15T23:00:26.474Z,93847.88
2023-05-15T23:02:55.373Z,93853.16
2023-05-15T23:05:22.495Z,93856.28
2023-05-15T23:07:49.110Z,93852.44
2023-05-15T23:10:15.788Z,93859.38
2023-05-15T23:12:42.531Z,93862.94
2023-05-15T23:15:12.213Z,93861.81
2023-05-15T23:17:39.245Z,93850.28
2023-05-15T23:20:13.563Z,93850.97
2023-05-15T23:22:40.488Z,93850.19
2023-05-15T23:25:07.526Z,93844.31
2023-05-15T23:27:34.285Z,93851.63
2023-05-15T23:30:01.839Z,93847.31
2023-05-15T23:32:28.557Z,93853.50
2023-05-15T23:34:55.658Z,93849.63
2023-05-15T23:37:22.465Z,93850.47
2023-05-15T23:39:49.154Z,93844.31
2023-05-15T23:42:16.012Z,93835.44
2023-05-15T23:44:42.714Z,93836.38
2023-05-15T23:47:09.401Z,93836.41
2023-05-15T23:49:36.302Z,93841.06
2023-05-15T23:52:02.992Z,93830.28
2023-05-15T23:54:29.669Z,93829.81
2023-05-15T23:56:56.319Z,93829.13
2023-05-15T23:59:23.044Z,93827.19
